Time,TemperatureF,DewpointF,PressureIn,WindDirection,WindDirectionDegrees,WindSpeedMPH,WindSpeedGustMPH,Humidity,HourlyPrecipIn,Conditions,Clouds,dailyrainin,SoftwareType,DateUTC
2013-02-17 00:00:00,37.0,32.0,29.81,NW,320,24.0,28.0,81,-99.99,,,-99.99,,2013-02-17 05:00:00,
2013-02-17 00:21:00,37.0,32.0,29.81,NW,320,24.0,28.0,81,-99.99,,,-99.99,,2013-02-17 05:21:00,
2013-02-17 00:32:00,37.0,32.0,29.81,NW,320,24.0,28.0,81,-99.99,,,-99.99,,2013-02-17 05:32:00,
2013-02-17 00:42:00,37.0,32.0,29.81,NW,320,24.0,28.0,81,-99.99,,,-99.99,,2013-02-17 05:42:00,
2013-02-17 00:51:00,37.0,32.0,29.81,NW,320,24.0,28.0,81,-99.99,,,-99.99,,2013-02-17 05:51:00,
2013-02-17 01:00:00,36.0,32.0,29.82,NW,320,24.0,29.0,85,-99.99,,,-99.99,,2013-02-17 06:00:00,
2013-02-17 01:21:00,36.0,32.0,29.82,NW,320,24.0,29.0,85,-99.99,,,-99.99,,2013-02-17 06:21:00,
2013-02-17 01:31:00,36.0,32.0,29.82,NW,320,24.0,29.0,85,-99.99,,,-99.99,,2013-02-17 06:31:00,
2013-02-17 01:41:00,36.0,32.0,29.82,NW,320,24.0,29.0,85,-99.99,,,-99.99,,2013-02-17 06:41:00,
2013-02-17 01:51:00,36.0,32.0,29.82,NW,320,24.0,29.0,85,-99.99,,,-99.99,,2013-02-17 06:51:00,
2013-02-17 02:00:00,35.0,32.0,29.83,NW,320,26.0,31.0,87,-99.99,,,-99.99,,2013-02-17 07:00:00,
2013-02-17 02:21:00,35.0,32.0,29.83,NW,320,26.0,31.0,87,-99.99,,,-99.99,,2013-02-17 07:21:00,
2013-02-17 02:31:00,35.0,32.0,29.83,NW,320,26.0,31.0,87,-99.99,,,-99.99,,2013-02-17 07:31:00,
2013-02-17 02:41:00,35.0,32.0,29.83,NW,320,26.0,31.0,87,-99.99,,,-99.99,,2013-02-17 07:41:00,
2013-02-17 02:51:00,35.0,32.0,29.83,NW,320,26.0,31.0,87,-99.99,,,-99.99,,2013-02-17 07:51:00,
2013-02-17 03:00:00,36.0,29.0,29.87,NNW,330,25.0,32.0,74,-99.99,,,-99.99,,2013-02-17 08:00:00,
2013-02-17 03:21:00,36.0,29.0,29.87,NNW,330,25.0,32.0,74,-99.99,,,-99.99,,2013-02-17 08:21:00,
2013-02-17 03:31:00,36.0,29.0,29.87,NNW,330,25.0,32.0,74,-99.99,,,-99.99,,2013-02-17 08:31:00,
2013-02-17 03:41:00,36.0,29.0,29.87,NNW,330,25.0,32.0,74,-99.99,,,-99.99,,2013-02-17 08:41:00,
2013-02-17 03:52:00,36.0,29.0,29.87,NNW,330,25.0,32.0,74,-99.99,,,-99.99,,2013-02-17 08:52:00,
2013-02-17 04:00:00,35.0,29.0,29.88,NW,320,25.0,32.0,78,-99.99,,,-99.99,,2013-02-17 09:00:00,
2013-02-17 04:21:00,35.0,29.0,29.88,NW,320,25.0,32.0,78,-99.99,,,-99.99,,2013-02-17 09:21:00,
2013-02-17 04:31:00,35.0,29.0,29.88,NW,320,25.0,32.0,78,-99.99,,,-99.99,,2013-02-17 09:31:00,
2013-02-17 04:41:00,35.0,29.0,29.88,NW,320,25.0,32.0,78,-99.99,,,-99.99,,2013-02-17 09:41:00,
2013-02-17 04:51:00,35.0,29.0,29.88,NW,320,25.0,32.0,78,-99.99,,,-99.99,,2013-02-17 09:51:00,
2013-02-17 05:00:00,35.0,27.0,29.91,NW,320,22.0,25.0,70,-99.99,,,-99.99,,2013-02-17 10:00:00,
2013-02-17 05:21:00,35.0,27.0,29.91,NW,320,22.0,25.0,70,-99.99,,,-99.99,,2013-02-17 10:21:00,
2013-02-17 05:31:00,35.0,27.0,29.91,NW,320,22.0,25.0,70,-99.99,,,-99.99,,2013-02-17 10:31:00,
2013-02-17 05:41:00,35.0,27.0,29.91,NW,320,22.0,25.0,70,-99.99,,,-99.99,,2013-02-17 10:41:00,
2013-02-17 05:51:00,35.0,27.0,29.91,NW,320,22.0,25.0,70,-99.99,,,-99.99,,2013-02-17 10:51:00,
2013-02-17 06:00:00,35.0,28.0,29.95,WNW,300,26.0,34.0,75,-99.99,,,-99.99,,2013-02-17 11:00:00,
2013-02-17 06:21:00,35.0,28.0,29.95,WNW,300,26.0,34.0,75,-99.99,,,-99.99,,2013-02-17 11:21:00,
2013-02-17 06:32:00,35.0,28.0,29.95,WNW,300,26.0,34.0,75,-99.99,,,-99.99,,2013-02-17 11:32:00,
2013-02-17 06:41:00,35.0,28.0,29.95,WNW,300,26.0,34.0,75,-99.99,,,-99.99,,2013-02-17 11:41:00,
2013-02-17 06:52:00,35.0,28.0,29.95,WNW,300,26.0,34.0,75,-99.99,,,-99.99,,2013-02-17 11:52:00,
2013-02-17 07:00:00,34.0,24.0,29.97,WNW,300,26.0,33.0,64,-99.99,,,-99.99,,2013-02-17 12:00:00,
2013-02-17 07:22:00,34.0,24.0,29.97,WNW,300,26.0,33.0,64,-99.99,,,-99.99,,2013-02-17 12:22:00,
2013-02-17 07:31:00,34.0,24.0,29.97,WNW,300,26.0,33.0,64,-99.99,,,-99.99,,2013-02-17 12:31:00,
2013-02-17 07:42:00,34.0,24.0,29.97,WNW,300,26.0,33.0,64,-99.99,,,-99.99,,2013-02-17 12:42:00,
2013-02-17 07:52:00,34.0,24.0,29.97,WNW,300,26.0,33.0,64,-99.99,,,-99.99,,2013-02-17 12:52:00,
2013-02-17 08:00:00,33.0,22.0,30.00,NW,310,26.0,32.0,62,-99.99,,,-99.99,,2013-02-17 13:00:00,
2013-02-17 08:21:00,33.0,22.0,30.00,NW,310,26.0,32.0,62,-99.99,,,-99.99,,2013-02-17 13:21:00,
2013-02-17 08:32:00,33.0,22.0,30.00,NW,310,26.0,32.0,62,-99.99,,,-99.99,,2013-02-17 13:32:00,
2013-02-17 08:41:00,33.0,22.0,30.00,NW,310,26.0,32.0,62,-99.99,,,-99.99,,2013-02-17 13:41:00,
2013-02-17 08:51:00,33.0,22.0,30.00,NW,310,26.0,32.0,62,-99.99,,,-99.99,,2013-02-17 13:51:00,
2013-02-17 09:00:00,33.0,21.0,30.03,NW,310,25.0,32.0,59,-99.99,,,-99.99,,2013-02-17 14:00:00,
2013-02-17 09:21:00,33.0,21.0,30.03,NW,310,25.0,32.0,59,-99.99,,,-99.99,,2013-02-17 14:21:00,
2013-02-17 09:32:00,33.0,21.0,30.03,NW,310,25.0,32.0,59,-99.99,,,-99.99,,2013-02-17 14:32:00,
2013-02-17 09:42:00,33.0,21.0,30.03,NW,310,25.0,32.0,59,-99.99,,,-99.99,,2013-02-17 14:42:00,
2013-02-17 09:52:00,33.0,21.0,30.03,NW,310,25.0,32.0,59,-99.99,,,-99.99,,2013-02-17 14:52:00,
2013-02-17 10:00:00,34.0,19.0,30.05,WNW,300,22.0,32.0,53,-99.99,,,-99.99,,2013-02-17 15:00:00,
2013-02-17 10:21:00,34.0,19.0,30.05,WNW,300,22.0,32.0,53,-99.99,,,-99.99,,2013-02-17 15:21:00,
2013-02-17 10:31:00,34.0,19.0,30.05,WNW,300,22.0,32.0,53,-99.99,,,-99.99,,2013-02-17 15:31:00,
2013-02-17 10:41:00,34.0,19.0,30.05,WNW,300,22.0,32.0,53,-99.99,,,-99.99,,2013-02-17 15:41:00,
2013-02-17 10:51:00,34.0,19.0,30.05,WNW,300,22.0,32.0,53,-99.99,,,-99.99,,2013-02-17 15:51:00,
2013-02-17 11:00:00,34.0,16.0,30.07,NW,310,18.0,24.0,46,-99.99,,,-99.99,,2013-02-17 16:00:00,
2013-02-17 11:21:00,34.0,16.0,30.07,NW,310,18.0,24.0,46,-99.99,,,-99.99,,2013-02-17 16:21:00,
2013-02-17 11:31:00,34.0,16.0,30.07,NW,310,18.0,24.0,46,-99.99,,,-99.99,,2013-02-17 16:31:00,
2013-02-17 11:41:00,34.0,16.0,30.07,NW,310,18.0,24.0,46,-99.99,,,-99.99,,2013-02-17 16:41:00,
2013-02-17 11:51:00,34.0,16.0,30.07,NW,310,18.0,24.0,46,-99.99,,,-99.99,,2013-02-17 16:51:00,
2013-02-17 12:00:00,35.0,17.0,30.06,WNW,300,23.0,30.0,47,-99.99,,,-99.99,,2013-02-17 17:00:00,
2013-02-17 12:21:00,35.0,17.0,30.06,WNW,300,23.0,30.0,47,-99.99,,,-99.99,,2013-02-17 17:21:00,
2013-02-17 12:31:00,35.0,17.0,30.06,WNW,300,23.0,30.0,47,-99.99,,,-99.99,,2013-02-17 17:31:00,
2013-02-17 12:41:00,35.0,17.0,30.06,WNW,300,23.0,30.0,47,-99.99,,,-99.99,,2013-02-17 17:41:00,
2013-02-17 12:52:00,35.0,17.0,30.06,WNW,300,23.0,30.0,47,-99.99,,,-99.99,,2013-02-17 17:52:00,
2013-02-17 13:00:00,35.0,15.0,30.06,WNW,290,26.0,31.0,43,-99.99,,,-99.99,,2013-02-17 18:00:00,
2013-02-17 13:21:00,35.0,15.0,30.06,WNW,290,26.0,31.0,43,-99.99,,,-99.99,,2013-02-17 18:21:00,
2013-02-17 13:32:00,35.0,15.0,30.06,WNW,290,26.0,31.0,43,-99.99,,,-99.99,,2013-02-17 18:32:00,
2013-02-17 13:41:00,35.0,15.0,30.06,WNW,290,26.0,31.0,43,-99.99,,,-99.99,,2013-02-17 18:41:00,
2013-02-17 13:52:00,35.0,15.0,30.06,WNW,290,26.0,31.0,43,-99.99,,,-99.99,,2013-02-17 18:52:00,
2013-02-17 14:00:00,36.0,16.0,30.06,WNW,300,21.0,25.0,43,-99.99,,,-99.99,,2013-02-17 19:00:00,
2013-02-17 14:21:00,36.0,16.0,30.06,WNW,300,21.0,25.0,43,-99.99,,,-99.99,,2013-02-17 19:21:00,
2013-02-17 14:31:00,36.0,16.0,30.06,WNW,300,21.0,25.0,43,-99.99,,,-99.99,,2013-02-17 19:31:00,
2013-02-17 14:41:00,36.0,16.0,30.06,WNW,300,21.0,25.0,43,-99.99,,,-99.99,,2013-02-17 19:41:00,
2013-02-17 14:51:00,36.0,16.0,30.06,WNW,300,21.0,25.0,43,-99.99,,,-99.99,,2013-02-17 19:51:00,
2013-02-17 15:00:00,35.0,12.0,30.07,WNW,300,22.0,26.0,37,-99.99,,,-99.99,,2013-02-17 20:00:00,
2013-02-17 15:21:00,35.0,12.0,30.07,WNW,300,22.0,26.0,37,-99.99,,,-99.99,,2013-02-17 20:21:00,
2013-02-17 15:31:00,35.0,12.0,30.07,WNW,300,22.0,26.0,37,-99.99,,,-99.99,,2013-02-17 20:31:00,
2013-02-17 15:42:00,35.0,12.0,30.07,WNW,300,22.0,26.0,37,-99.99,,,-99.99,,2013-02-17 20:42:00,
2013-02-17 15:52:00,35.0,12.0,30.07,WNW,300,22.0,26.0,37,-99.99,,,-99.99,,2013-02-17 20:52:00,
2013-02-17 16:00:00,37.0,14.0,30.09,NW,310,23.0,32.0,38,-99.99,,,-99.99,,2013-02-17 21:00:00,
2013-02-17 16:21:00,37.0,14.0,30.09,NW,310,23.0,32.0,38,-99.99,,,-99.99,,2013-02-17 21:21:00,
2013-02-17 16:31:00,37.0,14.0,30.09,NW,310,23.0,32.0,38,-99.99,,,-99.99,,2013-02-17 21:31:00,
2013-02-17 16:41:00,37.0,14.0,30.09,NW,310,23.0,32.0,38,-99.99,,,-99.99,,2013-02-17 21:41:00,
2013-02-17 16:52:00,37.0,14.0,30.09,NW,310,23.0,32.0,38,-99.99,,,-99.99,,2013-02-17 21:52:00,
2013-02-17 17:00:00,37.0,12.0,30.11,WNW,300,26.0,31.0,35,-99.99,,,-99.99,,2013-02-17 22:00:00,
2013-02-17 17:21:00,37.0,12.0,30.11,WNW,300,26.0,31.0,35,-99.99,,,-99.99,,2013-02-17 22:21:00,
2013-02-17 17:32:00,37.0,12.0,30.11,WNW,300,26.0,31.0,35,-99.99,,,-99.99,,2013-02-17 22:32:00,
2013-02-17 17:41:00,37.0,12.0,30.11,WNW,300,26.0,31.0,35,-99.99,,,-99.99,,2013-02-17 22:41:00,
2013-02-17 17:52:00,37.0,12.0,30.11,WNW,300,26.0,31.0,35,-99.99,,,-99.99,,2013-02-17 22:52:00,
2013-02-17 18:00:00,37.0,13.0,30.14,WNW,300,24.0,31.0,36,-99.99,,,-99.99,,2013-02-17 23:00:00,
2013-02-17 18:21:00,37.0,13.0,30.14,WNW,300,24.0,31.0,36,-99.99,,,-99.99,,2013-02-17 23:21:00,
2013-02-17 18:31:00,37.0,13.0,30.14,WNW,300,24.0,31.0,36,-99.99,,,-99.99,,2013-02-17 23:31:00,
2013-02-17 18:41:00,37.0,13.0,30.14,WNW,300,24.0,31.0,36,-99.99,,,-99.99,,2013-02-17 23:41:00,
2013-02-17 18:52:00,37.0,13.0,30.14,WNW,300,24.0,31.0,36,-99.99,,,-99.99,,2013-02-17 23:52:00,
2013-02-17 19:00:00,37.0,13.0,30.17,WNW,300,22.0,28.0,36,-99.99,,,-99.99,,2013-02-18 00:00:00,
2013-02-17 19:22:00,37.0,13.0,30.17,WNW,300,22.0,28.0,36,-99.99,,,-99.99,,2013-02-18 00:22:00,
2013-02-17 19:31:00,37.0,13.0,30.17,WNW,300,22.0,28.0,36,-99.99,,,-99.99,,2013-02-18 00:31:00,
2013-02-17 19:41:00,37.0,13.0,30.17,WNW,300,22.0,28.0,36,-99.99,,,-99.99,,2013-02-18 00:41:00,
2013-02-17 19:52:00,37.0,13.0,30.17,WNW,300,22.0,28.0,36,-99.99,,,-99.99,,2013-02-18 00:52:00,
2013-02-17 20:00:00,38.0,15.0,30.20,WNW,300,16.0,20.0,39,-99.99,,,-99.99,,2013-02-18 01:00:00,
2013-02-17 20:21:00,38.0,15.0,30.20,WNW,300,16.0,20.0,39,-99.99,,,-99.99,,2013-02-18 01:21:00,
2013-02-17 20:31:00,38.0,15.0,30.20,WNW,300,16.0,20.0,39,-99.99,,,-99.99,,2013-02-18 01:31:00,
2013-02-17 20:41:00,38.0,15.0,30.20,WNW,300,16.0,20.0,39,-99.99,,,-99.99,,2013-02-18 01:41:00,
2013-02-17 20:51:00,38.0,15.0,30.20,WNW,300,16.0,20.0,39,-99.99,,,-99.99,,2013-02-18 01:51:00,
2013-02-17 21:00:00,38.0,14.0,30.22,WNW,300,18.0,24.0,37,-99.99,,,-99.99,,2013-02-18 02:00:00,
2013-02-17 21:21:00,38.0,14.0,30.22,WNW,300,18.0,24.0,37,-99.99,,,-99.99,,2013-02-18 02:21:00,
2013-02-17 21:31:00,38.0,14.0,30.22,WNW,300,18.0,24.0,37,-99.99,,,-99.99,,2013-02-18 02:31:00,
2013-02-17 21:41:00,38.0,14.0,30.22,WNW,300,18.0,24.0,37,-99.99,,,-99.99,,2013-02-18 02:41:00,
2013-02-17 21:51:00,38.0,14.0,30.22,WNW,300,18.0,24.0,37,-99.99,,,-99.99,,2013-02-18 02:51:00,
2013-02-17 22:00:00,38.0,16.0,30.25,WNW,300,14.0,17.0,39,-99.99,,,-99.99,,2013-02-18 03:00:00,
2013-02-17 22:21:00,38.0,16.0,30.25,WNW,300,14.0,17.0,39,-99.99,,,-99.99,,2013-02-18 03:21:00,
2013-02-17 22:31:00,38.0,16.0,30.25,WNW,300,14.0,17.0,39,-99.99,,,-99.99,,2013-02-18 03:31:00,
2013-02-17 22:41:00,38.0,16.0,30.25,WNW,300,14.0,17.0,39,-99.99,,,-99.99,,2013-02-18 03:41:00,
2013-02-17 22:51:00,38.0,16.0,30.25,WNW,300,14.0,17.0,39,-99.99,,,-99.99,,2013-02-18 03:51:00,
2013-02-17 23:00:00,37.0,13.0,30.26,NW,310,17.0,20.0,35,-99.99,,,-99.99,,2013-02-18 04:00:00,
2013-02-17 23:21:00,37.0,13.0,30.26,NW,310,17.0,20.0,35,-99.99,,,-99.99,,2013-02-18 04:21:00,
2013-02-17 23:32:00,37.0,13.0,30.26,NW,310,17.0,20.0,35,-99.99,,,-99.99,,2013-02-18 04:32:00,
2013-02-17 23:41:00,37.0,13.0,30.26,NW,310,17.0,20.0,35,-99.99,,,-99.99,,2013-02-18 04:41:00,
2013-02-17 23:51:00,37.0,13.0,30.26,NW,310,17.0,20.0,35,-99.99,,,-99.99,,2013-02-18 04:51:00,